sensor_id;sensor_type;location;lat;lon;timestamp;pressure;altitude;pressure_sealevel;temperature
72236;BMP280;60146;52.498;13.462;2023-05-10T00:00:26;100985.25;;;14.36
72236;BMP280;60146;52.498;13.462;2023-05-10T00:02:51;100990.63;;;14.31
72236;BMP280;60146;52.498;13.462;2023-05-10T00:05:17;100984.38;;;14.27
72236;BMP280;60146;52.498;13.462;2023-05-10T00:07:42;100982.31;;;14.24
72236;BMP280;60146;52.498;13.462;2023-05-10T00:10:10;100986.16;;;14.18
72236;BMP280;60146;52.498;13.462;2023-05-10T00:12:35;100986.16;;;14.18
72236;BMP280;60146;52.498;13.462;2023-05-10T00:15:01;100981.66;;;14.19
72236;BMP280;60146;52.498;13.462;2023-05-10T00:17:26;100984.00;;;14.20
72236;BMP280;60146;52.498;13.462;2023-05-10T00:19:51;100977.56;;;14.13
72236;BMP280;60146;52.498;13.462;2023-05-10T00:22:17;100978.75;;;14.07
72236;BMP280;60146;52.498;13.462;2023-05-10T00:24:42;100981.16;;;14.04
72236;BMP280;60146;52.498;13.462;2023-05-10T00:27:07;100965.28;;;13.96
72236;BMP280;60146;52.498;13.462;2023-05-10T00:29:33;100971.06;;;13.97
72236;BMP280;60146;52.498;13.462;2023-05-10T00:31:58;100970.19;;;13.89
72236;BMP280;60146;52.498;13.462;2023-05-10T00:34:24;100963.72;;;13.81
72236;BMP280;60146;52.498;13.462;2023-05-10T00:36:49;100954.59;;;13.79
72236;BMP280;60146;52.498;13.462;2023-05-10T00:39:15;100957.59;;;13.73
72236;BMP280;60146;52.498;13.462;2023-05-10T00:41:40;100952.53;;;13.63
72236;BMP280;60146;52.498;13.462;2023-05-10T00:44:05;100953.38;;;13.58
72236;BMP280;60146;52.498;13.462;2023-05-10T00:46:31;100953.84;;;13.47
72236;BMP280;60146;52.498;13.462;2023-05-10T00:48:57;100947.94;;;13.55
72236;BMP280;60146;52.498;13.462;2023-05-10T00:51:22;100948.81;;;13.51
72236;BMP280;60146;52.498;13.462;2023-05-10T00:53:48;100943.59;;;13.46
72236;BMP280;60146;52.498;13.462;2023-05-10T00:56:15;100945.28;;;13.42
72236;BMP280;60146;52.498;13.462;2023-05-10T00:58:42;100949.84;;;13.37
72236;BMP280;60146;52.498;13.462;2023-05-10T01:01:08;100942.84;;;13.32
72236;BMP280;60146;52.498;13.462;2023-05-10T01:03:34;100929.94;;;13.31
72236;BMP280;60146;52.498;13.462;2023-05-10T01:06:00;100934.25;;;13.27
72236;BMP280;60146;52.498;13.462;2023-05-10T01:08:25;100938.41;;;13.28
72236;BMP280;60146;52.498;13.462;2023-05-10T01:10:51;100937.31;;;13.16
72236;BMP280;60146;52.498;13.462;2023-05-10T01:13:31;100925.66;;;13.21
72236;BMP280;60146;52.498;13.462;2023-05-10T01:15:58;100932.47;;;13.22
72236;BMP280;60146;52.498;13.462;2023-05-10T01:18:25;100927.41;;;13.13
72236;BMP280;60146;52.498;13.462;2023-05-10T01:21:04;100921.94;;;13.09
72236;BMP280;60146;52.498;13.462;2023-05-10T01:26:38;100920.53;;;12.98
72236;BMP280;60146;52.498;13.462;2023-05-10T01:29:14;100927.34;;;12.99
72236;BMP280;60146;52.498;13.462;2023-05-10T01:34:34;100920.69;;;12.89
72236;BMP280;60146;52.498;13.462;2023-05-10T01:37:14;100922.63;;;12.83
72236;BMP280;60146;52.498;13.462;2023-05-10T01:39:46;100916.19;;;12.76
72236;BMP280;60146;52.498;13.462;2023-05-10T01:42:46;100914.81;;;12.78
72236;BMP280;60146;52.498;13.462;2023-05-10T01:45:29;100919.66;;;12.72
72236;BMP280;60146;52.498;13.462;2023-05-10T01:50:32;100922.38;;;12.67
72236;BMP280;60146;52.498;13.462;2023-05-10T01:52:59;100924.22;;;12.66
72236;BMP280;60146;52.498;13.462;2023-05-10T01:55:28;100908.75;;;12.65
72236;BMP280;60146;52.498;13.462;2023-05-10T01:58:48;100912.53;;;12.59
72236;BMP280;60146;52.498;13.462;2023-05-10T02:01:07;100903.84;;;12.58
72236;BMP280;60146;52.498;13.462;2023-05-10T02:03:35;100904.41;;;12.56
72236;BMP280;60146;52.498;13.462;2023-05-10T02:06:01;100903.19;;;12.48
72236;BMP280;60146;52.498;13.462;2023-05-10T02:08:27;100917.03;;;12.54
72236;BMP280;60146;52.498;13.462;2023-05-10T02:10:55;100904.47;;;12.51
72236;BMP280;60146;52.498;13.462;2023-05-10T02:13:23;100910.31;;;12.48
72236;BMP280;60146;52.498;13.462;2023-05-10T02:15:49;100910.38;;;12.43
72236;BMP280;60146;52.498;13.462;2023-05-10T02:18:16;100910.97;;;12.40
72236;BMP280;60146;52.498;13.462;2023-05-10T02:20:43;100904.94;;;12.39
72236;BMP280;60146;52.498;13.462;2023-05-10T02:23:11;100904.56;;;12.46
72236;BMP280;60146;52.498;13.462;2023-05-10T02:25:37;100900.34;;;12.45
72236;BMP280;60146;52.498;13.462;2023-05-10T02:28:04;100900.16;;;12.41
72236;BMP280;60146;52.498;13.462;2023-05-10T02:30:32;100891.78;;;12.39
72236;BMP280;60146;52.498;13.462;2023-05-10T02:32:58;100897.34;;;12.38
72236;BMP280;60146;52.498;13.462;2023-05-10T02:35:25;100893.19;;;12.32
72236;BMP280;60146;52.498;13.462;2023-05-10T02:37:51;100891.13;;;12.29
72236;BMP280;60146;52.498;13.462;2023-05-10T02:40:18;100891.41;;;12.28
72236;BMP280;60146;52.498;13.462;2023-05-10T02:42:47;100902.22;;;12.26
72236;BMP280;60146;52.498;13.462;2023-05-10T02:45:17;100887.00;;;12.23
72236;BMP280;60146;52.498;13.462;2023-05-10T02:47:43;100893.56;;;12.26
72236;BMP280;60146;52.498;13.462;2023-05-10T02:50:09;100888.13;;;12.17
72236;BMP280;60146;52.498;13.462;2023-05-10T02:52:56;100893.94;;;12.19
72236;BMP280;60146;52.498;13.462;2023-05-10T02:55:26;100892.34;;;12.18
72236;BMP280;60146;52.498;13.462;2023-05-10T02:57:57;100893.75;;;12.11
72236;BMP280;60146;52.498;13.462;2023-05-10T03:00:24;100899.53;;;12.08
72236;BMP280;60146;52.498;13.462;2023-05-10T03:02:50;100894.03;;;12.10
72236;BMP280;60146;52.498;13.462;2023-05-10T03:05:15;100900.41;;;12.04
72236;BMP280;60146;52.498;13.462;2023-05-10T03:07:41;100891.47;;;12.05
72236;BMP280;60146;52.498;13.462;2023-05-10T03:10:06;100900.22;;;12.00
72236;BMP280;60146;52.498;13.462;2023-05-10T03:15:22;100894.38;;;12.03
72236;BMP280;60146;52.498;13.462;2023-05-10T03:17:57;100894.81;;;11.92
72236;BMP280;60146;52.498;13.462;2023-05-10T03:20:51;100894.19;;;12.00
72236;BMP280;60146;52.498;13.462;2023-05-10T03:23:40;100897.88;;;11.99
72236;BMP280;60146;52.498;13.462;2023-05-10T03:26:07;100887.13;;;11.96
72236;BMP280;60146;52.498;13.462;2023-05-10T03:28:34;100890.06;;;11.94
72236;BMP280;60146;52.498;13.462;2023-05-10T03:31:00;100888.53;;;11.88
72236;BMP280;60146;52.498;13.462;2023-05-10T03:33:27;100892.09;;;11.97
72236;BMP280;60146;52.498;13.462;2023-05-10T03:35:52;100891.59;;;11.95
72236;BMP280;60146;52.498;13.462;2023-05-10T03:38:17;100882.66;;;11.96
72236;BMP280;60146;52.498;13.462;2023-05-10T03:40:42;100891.13;;;11.93
72236;BMP280;60146;52.498;13.462;2023-05-10T03:43:08;100885.66;;;11.90
72236;BMP280;60146;52.498;13.462;2023-05-10T03:45:33;100882.66;;;11.96
72236;BMP280;60146;52.498;13.462;2023-05-10T03:47:58;100883.44;;;11.97
72236;BMP280;60146;52.498;13.462;2023-05-10T03:50:24;100879.97;;;12.01
72236;BMP280;60146;52.498;13.462;2023-05-10T03:52:50;100885.09;;;12.11
72236;BMP280;60146;52.498;13.462;2023-05-10T03:55:15;100878.84;;;12.07
72236;BMP280;60146;52.498;13.462;2023-05-10T03:57:41;100879.91;;;12.06
72236;BMP280;60146;52.498;13.462;2023-05-10T04:00:07;100884.31;;;12.10
72236;BMP280;60146;52.498;13.462;2023-05-10T04:02:33;100884.22;;;12.15
72236;BMP280;60146;52.498;13.462;2023-05-10T04:04:58;100887.50;;;12.25
72236;BMP280;60146;52.498;13.462;2023-05-10T04:07:23;100883.25;;;12.29
72236;BMP280;60146;52.498;13.462;2023-05-10T04:09:49;100886.66;;;12.30
72236;BMP280;60146;52.498;13.462;2023-05-10T04:12:14;100880.00;;;12.37
72236;BMP280;60146;52.498;13.462;2023-05-10T04:14:39;100884.31;;;12.28
72236;BMP280;60146;52.498;13.462;2023-05-10T04:17:05;100884.34;;;12.46
72236;BMP280;60146;52.498;13.462;2023-05-10T04:19:31;100880.19;;;12.40
72236;BMP280;60146;52.498;13.462;2023-05-10T04:21:58;100872.00;;;12.42
72236;BMP280;60146;52.498;13.462;2023-05-10T04:24:23;100858.06;;;12.46
72236;BMP280;60146;52.498;13.462;2023-05-10T04:26:49;100876.34;;;12.51
72236;BMP280;60146;52.498;13.462;2023-05-10T04:29:14;100865.63;;;12.48
72236;BMP280;60146;52.498;13.462;2023-05-10T04:31:39;100870.13;;;12.60
72236;BMP280;60146;52.498;13.462;2023-05-10T04:34:05;100871.13;;;12.64
72236;BMP280;60146;52.498;13.462;2023-05-10T04:36:30;100870.09;;;12.65
72236;BMP280;60146;52.498;13.462;2023-05-10T04:38:57;100876.13;;;12.66
72236;BMP280;60146;52.498;13.462;2023-05-10T04:41:22;100873.72;;;12.82
72236;BMP280;60146;52.498;13.462;2023-05-10T04:43:48;100878.63;;;12.89
72236;BMP280;60146;52.498;13.462;2023-05-10T04:46:14;100871.16;;;12.96
72236;BMP280;60146;52.498;13.462;2023-05-10T04:48:39;100869.47;;;12.99
72236;BMP280;60146;52.498;13.462;2023-05-10T04:51:05;100870.06;;;12.97
72236;BMP280;60146;52.498;13.462;2023-05-10T04:53:31;100870.66;;;13.07
72236;BMP280;60146;52.498;13.462;2023-05-10T04:55:57;100867.13;;;13.11
72236;BMP280;60146;52.498;13.462;2023-05-10T04:58:22;100864.91;;;13.18
72236;BMP280;60146;52.498;13.462;2023-05-10T05:00:48;100866.97;;;13.21
72236;BMP280;60146;52.498;13.462;2023-05-10T05:03:13;100860.72;;;13.30
72236;BMP280;60146;52.498;13.462;2023-05-10T05:05:38;100862.69;;;13.38
72236;BMP280;60146;52.498;13.462;2023-05-10T05:08:04;100862.00;;;13.46
72236;BMP280;60146;52.498;13.462;2023-05-10T05:10:29;100863.88;;;13.45
72236;BMP280;60146;52.498;13.462;2023-05-10T05:12:55;100860.69;;;13.83
72236;BMP280;60146;52.498;13.462;2023-05-10T05:15:20;100863.69;;;14.24
72236;BMP280;60146;52.498;13.462;2023-05-10T05:17:45;100863.44;;;14.34
72236;BMP280;60146;52.498;13.462;2023-05-10T05:20:11;100856.16;;;14.31
72236;BMP280;60146;52.498;13.462;2023-05-10T05:22:37;100857.16;;;14.22
72236;BMP280;60146;52.498;13.462;2023-05-10T05:25:03;100862.41;;;14.22
72236;BMP280;60146;52.498;13.462;2023-05-10T05:27:29;100849.06;;;14.18
72236;BMP280;60146;52.498;13.462;2023-05-10T05:29:58;100852.78;;;14.17
72236;BMP280;60146;52.498;13.462;2023-05-10T05:32:24;100851.88;;;14.22
72236;BMP280;60146;52.498;13.462;2023-05-10T05:34:49;100850.78;;;14.23
72236;BMP280;60146;52.498;13.462;2023-05-10T05:37:16;100859.75;;;14.35
72236;BMP280;60146;52.498;13.462;2023-05-10T05:39:42;100857.13;;;14.43
72236;BMP280;60146;52.498;13.462;2023-05-10T05:42:12;100841.53;;;14.47
72236;BMP280;60146;52.498;13.462;2023-05-10T05:44:38;100842.84;;;14.57
72236;BMP280;60146;52.498;13.462;2023-05-10T05:47:03;100840.69;;;14.59
72236;BMP280;60146;52.498;13.462;2023-05-10T05:49:29;100838.84;;;14.68
72236;BMP280;60146;52.498;13.462;2023-05-10T05:51:58;100835.59;;;14.71
72236;BMP280;60146;52.498;13.462;2023-05-10T05:54:24;100836.09;;;14.81
72236;BMP280;60146;52.498;13.462;2023-05-10T05:56:49;100844.59;;;14.92
72236;BMP280;60146;52.498;13.462;2023-05-10T05:59:14;100843.97;;;14.94
72236;BMP280;60146;52.498;13.462;2023-05-10T06:01:39;100839.19;;;15.05
72236;BMP280;60146;52.498;13.462;2023-05-10T06:04:05;100835.47;;;15.14
72236;BMP280;60146;52.498;13.462;2023-05-10T06:06:30;100836.94;;;15.28
72236;BMP280;60146;52.498;13.462;2023-05-10T06:08:57;100838.97;;;15.31
72236;BMP280;60146;52.498;13.462;2023-05-10T06:11:22;100841.31;;;15.33
72236;BMP280;60146;52.498;13.462;2023-05-10T06:13:48;100851.56;;;15.42
72236;BMP280;60146;52.498;13.462;2023-05-10T06:16:13;100846.47;;;15.62
72236;BMP280;60146;52.498;13.462;2023-05-10T06:18:38;100851.16;;;15.57
72236;BMP280;60146;52.498;13.462;2023-05-10T06:21:04;100847.69;;;15.56
72236;BMP280;60146;52.498;13.462;2023-05-10T06:23:29;100850.25;;;15.70
72236;BMP280;60146;52.498;13.462;2023-05-10T06:25:55;100839.50;;;15.74
72236;BMP280;60146;52.498;13.462;2023-05-10T06:28:20;100846.50;;;15.79
72236;BMP280;60146;52.498;13.462;2023-05-10T06:30:46;100858.00;;;15.74
72236;BMP280;60146;52.498;13.462;2023-05-10T06:33:11;100849.59;;;15.81
72236;BMP280;60146;52.498;13.462;2023-05-10T06:35:36;100837.31;;;15.93
72236;BMP280;60146;52.498;13.462;2023-05-10T06:38:02;100848.09;;;16.05
72236;BMP280;60146;52.498;13.462;2023-05-10T06:40:27;100844.34;;;15.97
72236;BMP280;60146;52.498;13.462;2023-05-10T06:42:52;100837.66;;;16.00
72236;BMP280;60146;52.498;13.462;2023-05-10T06:45:18;100837.31;;;16.10
72236;BMP280;60146;52.498;13.462;2023-05-10T06:47:43;100849.88;;;16.21
72236;BMP280;60146;52.498;13.462;2023-05-10T06:50:09;100844.91;;;16.28
72236;BMP280;60146;52.498;13.462;2023-05-10T06:52:36;100837.44;;;16.38
72236;BMP280;60146;52.498;13.462;2023-05-10T06:55:03;100844.72;;;16.41
72236;BMP280;60146;52.498;13.462;2023-05-10T06:57:28;100841.59;;;16.47
72236;BMP280;60146;52.498;13.462;2023-05-10T06:59:53;100837.56;;;16.49
72236;BMP280;60146;52.498;13.462;2023-05-10T07:02:20;100831.94;;;16.59
72236;BMP280;60146;52.498;13.462;2023-05-10T07:04:47;100841.13;;;16.62
72236;BMP280;60146;52.498;13.462;2023-05-10T07:07:13;100829.53;;;16.74
72236;BMP280;60146;52.498;13.462;2023-05-10T07:09:38;100839.16;;;16.79
72236;BMP280;60146;52.498;13.462;2023-05-10T07:12:04;100836.22;;;16.80
72236;BMP280;60146;52.498;13.462;2023-05-10T07:14:29;100836.50;;;16.79
72236;BMP280;60146;52.498;13.462;2023-05-10T07:16:54;100842.75;;;16.74
72236;BMP280;60146;52.498;13.462;2023-05-10T07:19:20;100829.78;;;16.89
72236;BMP280;60146;52.498;13.462;2023-05-10T07:21:45;100828.09;;;16.85
72236;BMP280;60146;52.498;13.462;2023-05-10T07:24:11;100826.44;;;17.09
72236;BMP280;60146;52.498;13.462;2023-05-10T07:26:36;100825.91;;;17.15
72236;BMP280;60146;52.498;13.462;2023-05-10T07:29:02;100834.38;;;17.09
72236;BMP280;60146;52.498;13.462;2023-05-10T07:31:27;100837.84;;;17.29
72236;BMP280;60146;52.498;13.462;2023-05-10T07:33:52;100840.44;;;17.38
72236;BMP280;60146;52.498;13.462;2023-05-10T07:36:18;100841.56;;;17.57
72236;BMP280;60146;52.498;13.462;2023-05-10T07:38:43;100829.13;;;17.49
72236;BMP280;60146;52.498;13.462;2023-05-10T07:41:09;100839.41;;;17.70
72236;BMP280;60146;52.498;13.462;2023-05-10T07:43:34;100838.28;;;17.71
72236;BMP280;60146;52.498;13.462;2023-05-10T07:46:00;100828.34;;;17.88
72236;BMP280;60146;52.498;13.462;2023-05-10T07:48:26;100832.09;;;17.87
72236;BMP280;60146;52.498;13.462;2023-05-10T07:50:51;100829.59;;;18.02
72236;BMP280;60146;52.498;13.462;2023-05-10T07:53:16;100820.47;;;18.12
72236;BMP280;60146;52.498;13.462;2023-05-10T07:55:43;100826.34;;;18.29
72236;BMP280;60146;52.498;13.462;2023-05-10T07:58:08;100827.78;;;18.26
72236;BMP280;60146;52.498;13.462;2023-05-10T08:00:34;100820.50;;;18.35
72236;BMP280;60146;52.498;13.462;2023-05-10T08:02:59;100810.34;;;18.37
72236;BMP280;60146;52.498;13.462;2023-05-10T08:05:25;100816.22;;;18.66
72236;BMP280;60146;52.498;13.462;2023-05-10T08:07:50;100822.63;;;18.77
72236;BMP280;60146;52.498;13.462;2023-05-10T08:10:16;100827.31;;;18.68
72236;BMP280;60146;52.498;13.462;2023-05-10T08:12:41;100816.13;;;18.62
72236;BMP280;60146;52.498;13.462;2023-05-10T08:15:08;100824.50;;;18.76
72236;BMP280;60146;52.498;13.462;2023-05-10T08:17:33;100818.13;;;18.77
72236;BMP280;60146;52.498;13.462;2023-05-10T08:19:59;100819.00;;;18.93
72236;BMP280;60146;52.498;13.462;2023-05-10T08:22:24;100811.97;;;19.23
72236;BMP280;60146;52.498;13.462;2023-05-10T08:24:49;100826.63;;;19.56
72236;BMP280;60146;52.498;13.462;2023-05-10T08:27:15;100818.44;;;19.76
72236;BMP280;60146;52.498;13.462;2023-05-10T08:29:40;100813.13;;;19.76
72236;BMP280;60146;52.498;13.462;2023-05-10T08:32:05;100805.47;;;20.01
72236;BMP280;60146;52.498;13.462;2023-05-10T08:34:31;100813.75;;;20.42
72236;BMP280;60146;52.498;13.462;2023-05-10T08:36:56;100827.53;;;21.11
72236;BMP280;60146;52.498;13.462;2023-05-10T08:39:22;100817.19;;;21.24
72236;BMP280;60146;52.498;13.462;2023-05-10T08:41:51;100822.66;;;21.31
72236;BMP280;60146;52.498;13.462;2023-05-10T08:44:17;100815.66;;;22.04
72236;BMP280;60146;52.498;13.462;2023-05-10T08:46:46;100818.09;;;22.56
72236;BMP280;60146;52.498;13.462;2023-05-10T08:49:13;100826.00;;;22.49
72236;BMP280;60146;52.498;13.462;2023-05-10T08:51:43;100813.09;;;23.09
72236;BMP280;60146;52.498;13.462;2023-05-10T08:54:10;100808.91;;;23.75
72236;BMP280;60146;52.498;13.462;2023-05-10T08:56:36;100808.81;;;24.60
72236;BMP280;60146;52.498;13.462;2023-05-10T08:59:01;100816.84;;;24.63
72236;BMP280;60146;52.498;13.462;2023-05-10T09:01:28;100809.94;;;25.56
72236;BMP280;60146;52.498;13.462;2023-05-10T09:03:55;100814.53;;;25.59
72236;BMP280;60146;52.498;13.462;2023-05-10T09:06:20;100808.78;;;25.81
72236;BMP280;60146;52.498;13.462;2023-05-10T09:08:46;100800.66;;;26.52
72236;BMP280;60146;52.498;13.462;2023-05-10T09:11:12;100818.69;;;26.62
72236;BMP280;60146;52.498;13.462;2023-05-10T09:13:38;100807.94;;;27.39
72236;BMP280;60146;52.498;13.462;2023-05-10T09:16:04;100818.31;;;27.86
72236;BMP280;60146;52.498;13.462;2023-05-10T09:18:30;100815.28;;;27.35
72236;BMP280;60146;52.498;13.462;2023-05-10T09:20:56;100822.66;;;28.16
72236;BMP280;60146;52.498;13.462;2023-05-10T09:23:21;100815.34;;;27.74
72236;BMP280;60146;52.498;13.462;2023-05-10T09:25:46;100816.09;;;27.78
72236;BMP280;60146;52.498;13.462;2023-05-10T09:28:12;100820.59;;;28.63
72236;BMP280;60146;52.498;13.462;2023-05-10T09:30:38;100816.72;;;29.22
72236;BMP280;60146;52.498;13.462;2023-05-10T09:33:03;100823.66;;;29.71
72236;BMP280;60146;52.498;13.462;2023-05-10T09:35:32;100819.25;;;29.58
72236;BMP280;60146;52.498;13.462;2023-05-10T09:38:00;100816.06;;;29.63
72236;BMP280;60146;52.498;13.462;2023-05-10T09:40:28;100837.22;;;29.46
72236;BMP280;60146;52.498;13.462;2023-05-10T09:43:05;100825.31;;;28.88
72236;BMP280;60146;52.498;13.462;2023-05-10T09:45:37;100819.91;;;28.88
72236;BMP280;60146;52.498;13.462;2023-05-10T09:48:03;100829.66;;;29.34
72236;BMP280;60146;52.498;13.462;2023-05-10T09:50:30;100829.47;;;29.22
72236;BMP280;60146;52.498;13.462;2023-05-10T09:52:57;100815.91;;;29.25
72236;BMP280;60146;52.498;13.462;2023-05-10T09:55:43;100815.00;;;29.80
72236;BMP280;60146;52.498;13.462;2023-05-10T09:58:14;100815.22;;;30.83
72236;BMP280;60146;52.498;13.462;2023-05-10T10:00:42;100829.66;;;31.11
72236;BMP280;60146;52.498;13.462;2023-05-10T10:03:18;100812.47;;;31.02
72236;BMP280;60146;52.498;13.462;2023-05-10T10:05:46;100827.06;;;30.73
72236;BMP280;60146;52.498;13.462;2023-05-10T10:08:12;100822.22;;;31.15
72236;BMP280;60146;52.498;13.462;2023-05-10T10:10:38;100829.03;;;30.54
72236;BMP280;60146;52.498;13.462;2023-05-10T10:13:06;100823.19;;;30.74
72236;BMP280;60146;52.498;13.462;2023-05-10T10:15:32;100817.09;;;31.36
72236;BMP280;60146;52.498;13.462;2023-05-10T10:17:58;100817.28;;;32.00
72236;BMP280;60146;52.498;13.462;2023-05-10T10:20:24;100810.66;;;31.73
72236;BMP280;60146;52.498;13.462;2023-05-10T10:22:50;100815.22;;;31.49
72236;BMP280;60146;52.498;13.462;2023-05-10T10:25:16;100813.59;;;32.34
72236;BMP280;60146;52.498;13.462;2023-05-10T10:30:24;100811.47;;;31.27
72236;BMP280;60146;52.498;13.462;2023-05-10T10:35:32;100805.84;;;32.60
72236;BMP280;60146;52.498;13.462;2023-05-10T10:37:58;100797.28;;;33.43
72236;BMP280;60146;52.498;13.462;2023-05-10T10:40:28;100796.09;;;33.32
72236;BMP280;60146;52.498;13.462;2023-05-10T10:42:55;100799.59;;;34.07
72236;BMP280;60146;52.498;13.462;2023-05-10T10:45:21;100805.16;;;34.04
72236;BMP280;60146;52.498;13.462;2023-05-10T10:47:47;100810.63;;;33.05
72236;BMP280;60146;52.498;13.462;2023-05-10T10:50:13;100811.66;;;33.65
72236;BMP280;60146;52.498;13.462;2023-05-10T10:52:43;100815.09;;;32.87
72236;BMP280;60146;52.498;13.462;2023-05-10T10:55:14;100808.22;;;32.83
72236;BMP280;60146;52.498;13.462;2023-05-10T11:02:45;100808.34;;;33.49
72236;BMP280;60146;52.498;13.462;2023-05-10T11:07:59;100790.16;;;33.25
72236;BMP280;60146;52.498;13.462;2023-05-10T11:10:26;100804.41;;;34.24
72236;BMP280;60146;52.498;13.462;2023-05-10T11:13:08;100800.59;;;34.52
72236;BMP280;60146;52.498;13.462;2023-05-10T11:15:48;100795.03;;;34.34
72236;BMP280;60146;52.498;13.462;2023-05-10T11:18:23;100790.28;;;32.97
72236;BMP280;60146;52.498;13.462;2023-05-10T11:20:55;100793.13;;;33.39
72236;BMP280;60146;52.498;13.462;2023-05-10T11:23:21;100777.97;;;34.34
72236;BMP280;60146;52.498;13.462;2023-05-10T11:25:48;100790.75;;;35.18
72236;BMP280;60146;52.498;13.462;2023-05-10T11:28:14;100800.84;;;33.94
72236;BMP280;60146;52.498;13.462;2023-05-10T11:30:40;100788.47;;;33.72
72236;BMP280;60146;52.498;13.462;2023-05-10T11:33:06;100800.25;;;33.57
72236;BMP280;60146;52.498;13.462;2023-05-10T11:35:39;100793.78;;;34.47
72236;BMP280;60146;52.498;13.462;2023-05-10T11:38:09;100789.34;;;34.79
72236;BMP280;60146;52.498;13.462;2023-05-10T11:40:35;100768.81;;;35.04
72236;BMP280;60146;52.498;13.462;2023-05-10T11:43:01;100793.53;;;34.71
72236;BMP280;60146;52.498;13.462;2023-05-10T11:45:27;100787.59;;;34.64
72236;BMP280;60146;52.498;13.462;2023-05-10T11:47:57;100795.94;;;34.61
72236;BMP280;60146;52.498;13.462;2023-05-10T11:50:23;100796.19;;;35.01
72236;BMP280;60146;52.498;13.462;2023-05-10T11:52:56;100781.19;;;33.90
72236;BMP280;60146;52.498;13.462;2023-05-10T11:55:22;100780.19;;;34.26
72236;BMP280;60146;52.498;13.462;2023-05-10T11:57:52;100784.56;;;35.62
72236;BMP280;60146;52.498;13.462;2023-05-10T12:00:17;100783.31;;;35.01
72236;BMP280;60146;52.498;13.462;2023-05-10T12:02:43;100791.03;;;34.18
72236;BMP280;60146;52.498;13.462;2023-05-10T12:05:08;100794.31;;;34.72
72236;BMP280;60146;52.498;13.462;2023-05-10T12:07:35;100792.00;;;35.26
72236;BMP280;60146;52.498;13.462;2023-05-10T12:12:41;100790.50;;;36.58
72236;BMP280;60146;52.498;13.462;2023-05-10T12:15:20;100805.03;;;35.66
72236;BMP280;60146;52.498;13.462;2023-05-10T12:17:47;100791.84;;;35.73
72236;BMP280;60146;52.498;13.462;2023-05-10T12:20:20;100800.78;;;35.56
72236;BMP280;60146;52.498;13.462;2023-05-10T12:22:56;100810.06;;;35.59
72236;BMP280;60146;52.498;13.462;2023-05-10T12:25:24;100815.66;;;35.47
72236;BMP280;60146;52.498;13.462;2023-05-10T12:27:56;100794.53;;;36.40
72236;BMP280;60146;52.498;13.462;2023-05-10T12:30:27;100791.97;;;35.96
72236;BMP280;60146;52.498;13.462;2023-05-10T12:32:53;100806.31;;;34.74
72236;BMP280;60146;52.498;13.462;2023-05-10T12:35:19;100800.06;;;35.56
72236;BMP280;60146;52.498;13.462;2023-05-10T12:37:50;100796.84;;;35.57
72236;BMP280;60146;52.498;13.462;2023-05-10T12:40:15;100792.25;;;36.07
72236;BMP280;60146;52.498;13.462;2023-05-10T12:42:40;100792.19;;;36.56
72236;BMP280;60146;52.498;13.462;2023-05-10T12:45:07;100805.84;;;36.56
72236;BMP280;60146;52.498;13.462;2023-05-10T12:47:33;100802.63;;;35.50
72236;BMP280;60146;52.498;13.462;2023-05-10T12:50:00;100802.53;;;33.92
72236;BMP280;60146;52.498;13.462;2023-05-10T12:52:26;100787.03;;;34.31
72236;BMP280;60146;52.498;13.462;2023-05-10T12:54:53;100797.78;;;35.81
72236;BMP280;60146;52.498;13.462;2023-05-10T12:57:20;100815.13;;;34.96
72236;BMP280;60146;52.498;13.462;2023-05-10T12:59:46;100803.44;;;34.86
72236;BMP280;60146;52.498;13.462;2023-05-10T13:02:11;100795.81;;;36.21
72236;BMP280;60146;52.498;13.462;2023-05-10T13:04:36;100798.94;;;36.69
72236;BMP280;60146;52.498;13.462;2023-05-10T13:07:06;100798.53;;;37.07
72236;BMP280;60146;52.498;13.462;2023-05-10T13:09:31;100790.72;;;36.69
72236;BMP280;60146;52.498;13.462;2023-05-10T13:11:56;100808.97;;;35.56
72236;BMP280;60146;52.498;13.462;2023-05-10T13:14:22;100810.28;;;34.91
72236;BMP280;60146;52.498;13.462;2023-05-10T13:16:47;100808.66;;;35.02
72236;BMP280;60146;52.498;13.462;2023-05-10T13:19:13;100792.31;;;35.28
72236;BMP280;60146;52.498;13.462;2023-05-10T13:21:39;100788.63;;;35.83
72236;BMP280;60146;52.498;13.462;2023-05-10T13:24:06;100789.00;;;35.33
72236;BMP280;60146;52.498;13.462;2023-05-10T13:26:32;100798.06;;;35.48
72236;BMP280;60146;52.498;13.462;2023-05-10T13:28:57;100793.78;;;34.47
72236;BMP280;60146;52.498;13.462;2023-05-10T13:31:23;100786.53;;;35.09
72236;BMP280;60146;52.498;13.462;2023-05-10T13:33:48;100782.31;;;35.51
72236;BMP280;60146;52.498;13.462;2023-05-10T13:36:13;100778.34;;;35.17
72236;BMP280;60146;52.498;13.462;2023-05-10T13:38:39;100784.34;;;34.86
72236;BMP280;60146;52.498;13.462;2023-05-10T13:41:05;100786.19;;;34.89
72236;BMP280;60146;52.498;13.462;2023-05-10T13:43:30;100778.50;;;35.14
72236;BMP280;60146;52.498;13.462;2023-05-10T13:45:56;100775.63;;;35.09
72236;BMP280;60146;52.498;13.462;2023-05-10T13:48:21;100772.84;;;35.00
72236;BMP280;60146;52.498;13.462;2023-05-10T13:50:46;100780.44;;;34.49
72236;BMP280;60146;52.498;13.462;2023-05-10T13:53:12;100776.91;;;33.69
72236;BMP280;60146;52.498;13.462;2023-05-10T13:55:38;100774.88;;;33.60
72236;BMP280;60146;52.498;13.462;2023-05-10T13:58:03;100758.59;;;34.11
72236;BMP280;60146;52.498;13.462;2023-05-10T14:00:29;100778.00;;;34.13
72236;BMP280;60146;52.498;13.462;2023-05-10T14:02:54;100774.09;;;34.22
72236;BMP280;60146;52.498;13.462;2023-05-10T14:05:20;100775.41;;;33.88
72236;BMP280;60146;52.498;13.462;2023-05-10T14:07:45;100781.41;;;32.97
72236;BMP280;60146;52.498;13.462;2023-05-10T14:10:11;100778.16;;;31.58